Flight Track Log - Related Links

Times and Time Zones

All times are in EDT time to prevent confusion due to time zone crossing. See the VH-BGX flight status page for this flight to view local times or setup timezone preferences in your user account.

Time Position Orientation Groundspeed Altitude Reporting Facility
EDT Latitude Longitude Course Direction KTS MPH feet Rate Location/Type
Sun 11:43:01 PM -28.1694 153.5090 184° South 70 81 300  Level Aus ATC (RADAR)
Sun 11:43:50 PM -28.1827 153.5080 184° South 76 87 700 494 Climbing Aus ATC (RADAR)
Sun 11:44:26 PM -28.1731 153.4937 307° West 97 112 1,000 450 Climbing Aus ATC (RADAR)
Sun 11:45:10 PM -28.1540 153.4831 334° Northwest 101 116 1,300 522 Climbing Aus ATC (RADAR)
Sun 11:45:35 PM -28.1436 153.4774 334° Northwest 99 114 1,600 500 Climbing Aus ATC (RADAR)
Sun 11:46:10 PM -28.1290 153.4690 333° Northwest 100 115 1,800 327 Climbing Aus ATC (RADAR)
Sun 11:47:25 PM -28.0942 153.4489 333° Northwest 113 130 2,200 240 Climbing Aus ATC (RADAR)
Sun 11:47:50 PM -28.0825 153.4422 333° Northwest 113 130 2,200 300 Level Aus ATC (RADAR)
Sun 11:48:25 PM -28.0669 153.4316 329° Northwest 110 127 2,500 494 Climbing Aus ATC (RADAR)
Sun 11:49:15 PM -28.0456 153.4166 328° Northwest 108 124 2,900 424 Climbing Aus ATC (RADAR)
Sun 11:49:50 PM -28.0301 153.4053 327° Northwest 112 129 3,100 300 Climbing Aus ATC (RADAR)
Sun 11:50:35 PM -28.0110 153.3910 327° Northwest 109 125 3,300 257 Climbing Aus ATC (RADAR)
Sun 11:51:00 PM -28.0010 153.3823 322° Northwest 107 123 3,400 400 Climbing Aus ATC (RADAR)
Sun 11:52:05 PM -27.9742 153.3608 325° Northwest 108 124 3,900 353 Climbing Aus ATC (RADAR)
Sun 11:52:25 PM -27.9655 153.3547 328° Northwest 109 125 3,900 122 Level Aus ATC (RADAR)
Sun 11:52:54 PM -27.9513 153.3464 332° Northwest 112 129 4,000 188 Climbing Aus ATC (RADAR)
Sun 11:53:29 PM -27.9337 153.3372 335° Northwest 117 135 4,100 -75 Climbing Aus ATC (RADAR)
Sun 11:54:14 PM -27.9095 153.3268 339° North 124 143 3,900 -75 Descending Aus ATC (RADAR)
Sun 11:54:49 PM -27.8915 153.3177 336° Northwest 120 138 4,000 75 Climbing Aus ATC (RADAR)
Sun 11:55:34 PM -27.8682 153.3065 337° Northwest 121 139 4,000  Level Aus ATC (RADAR)
Sun 11:55:59 PM -27.8553 153.3004 337° Northwest 119 137 4,000  Level Aus ATC (RADAR)
Sun 11:56:59 PM -27.8220 153.2878 341° North 125 144 4,000  Level Aus ATC (RADAR)
Sun 11:57:24 PM -27.8093 153.2817 337° Northwest 120 138 4,000  Level Aus ATC (RADAR)
Sun 11:57:49 PM -27.7965 153.2747 334° Northwest 121 139 4,000 -100 Level Aus ATC (RADAR)
Sun 11:58:24 PM -27.7775 153.2675 341° North 124 143 3,900  Descending Aus ATC (RADAR)
Sun 11:59:04 PM -27.7567 153.2588 340° North 119 137 4,000 80 Climbing Aus ATC (RADAR)
Sun 11:59:39 PM -27.7388 153.2496 336° Northwest 120 138 4,000 -75 Level Aus ATC (RADAR)
Mon 12:00:24 AM -27.7158 153.2368 334° Northwest 121 139 3,900 -429 Descending Aus ATC (RADAR)
Mon 12:00:49 AM -27.7031 153.2296 333° Northwest 122 140 3,500 -554 Descending Aus ATC (RADAR)
Mon 12:01:29 AM -27.6842 153.2153 326° Northwest 122 140 3,300 -540 Descending Aus ATC (RADAR)
Mon 12:02:29 AM -27.6570 153.1922 323° Northwest 122 140 2,600 -667 Descending Aus ATC (RADAR)
Mon 12:02:59 AM -27.6448 153.1783 314° West 123 142 2,300 -600 Descending Aus ATC (RADAR)
Mon 12:03:29 AM -27.6352 153.1622 304° West 122 140 2,000 -486 Descending Aus ATC (RADAR)
Mon 12:04:13 AM -27.6202 153.1398 307° West 117 135 1,700 -380 Descending Aus ATC (RADAR)
Mon 12:04:48 AM -27.6083 153.1226 308° West 119 137 1,500 -75 Descending Aus ATC (RADAR)
Mon 12:05:33 AM -27.6043 153.0965 280° West 117 135 1,600  Climbing Aus ATC (RADAR)
Mon 12:05:58 AM -27.6030 153.0811 275° West 117 135 1,500 -100 Descending Aus ATC (RADAR)
Mon 12:06:33 AM -27.5997 153.0600 280° West 116 133 1,500  Level Aus ATC (RADAR)
Mon 12:06:48 AM -27.5964 153.0506 291° West 124 143 1,500  Level Aus ATC (RADAR)
Mon 12:08:00 AM -27.5796 153.0232 305° West  Level Estimated

Login

Don't have an account? Register now (free) for customized features, flight alerts, and more!